x

Gulf Of Maine - 78 Nm East Of Portsmouth, Nh (44005) Wave Buoy

4:50 - Thu 17th Apr 2014 All times are EDT. -4 hours from GMT.

  • Sig Wave height 5.9ft
  • Peak Period 6s
  • Average Period 5s
  • Wind
    22mph, 27mph gusts
  • Sea Temp 40°f
  • Ar Temp 32°f
  • Sea Pressure 1039.9mb
  • Gulf Of Maine - 78 Nm East Of Portsmouth, Nh
  • Gulf Of Maine - 78 Nm East Of Portsmouth, Nh

More Historic Weather Station data

Upgrade to MSW Pro to gain access to the past 30 days of data for over 8000 Wavebouys and Weather Stations around the globe.

Join Pro

Comparision Forecast

View Surf forecast
   
Qui 04/17 4:50 6ft 6s 5s 22 27 mph 1039.9mb 40f 32f
3:50 6ft 10s 5s 22 27 mph 1039mb 40f 31f
2:50 6ft 10s 5s 22 29 mph 1038.2mb 40f 32f
1:50 6ft 11s 5s 25 29 mph 1037.3mb 40f 32f
12:50 5ft 10s 5s 25 27 mph 1036.6mb 40f 34f
Qua 04/16 11:50 5ft 11s 5s 22 27 mph 1036mb 40f 35f
10:50 5ft 11s 5s 20 22 mph 1035.1mb 40f 36f
9:50 5ft 12s 5s 20 22 mph 1034.4mb 40f 37f
8:50 5ft 11s 6s 18 22 mph 1033.7mb 40f 37f
7:50 6ft 11s 6s 20 22 mph 1031.6mb 41f 37f
6:50 6ft 11s 6s 22 25 mph 1030.7mb 41f 38f
5:50 7ft 11s 6s 20 27 mph 1029.8mb 41f 38f
4:50 6.5ft 12s 6s 16 20 mph 1028.9mb 41f 37f
3:50 7ft 11s 6s 16 22 mph 1027.7mb 41f 36f
2:50 8ft 11s 6s 20 25 mph 1026.8mb 41f 35f
1:50 7.5ft 10s 6s 25 31 mph 1025.3mb 41f 34f
12:50 7.5ft 6s 5s 27 34 mph 1023.9mb 41f 34f
11:50  -   -   -  27 31 mph 1022.7mb 41f 33f
10:50 8ft 7s 6s 29 34 mph 1021.3mb 41f 32f
9:50 8ft 6s 6s 29 36 mph 1020.1mb 41f 33f
8:50 10ft 7s 6s 34 40 mph 1017.7mb 41f 33f
7:50 9ft 6s 6s 27 34 mph 1015.3mb 41f 32f
6:50  -   -   -  29 36 mph 1013.5mb 41f 33f
4:50 8.5ft 9s 6s 25 31 mph 1008.5mb 41f 37f
3:50 8ft 9s 6s 27 34 mph 1006.3mb 41f 38f
2:50 9ft 8s 6s 29 38 mph 1006mb 41f 40f
1:50 9ft 9s 6s 25 31 mph 1004mb 41f 42f
12:50 9.5ft 8s 6s 25 29 mph 1002mb 41f 47f
Ter 04/15 11:50 8.5ft 8s 6s 27 34 mph 1001mb 41f 48f
10:50 8.5ft 7s 6s 29 36 mph 1002.1mb 41f 49f
9:50 10ft 8s 6s 27 31 mph 1002.9mb 41f 48f
8:50 9ft 7s 6s 31 40 mph 1003mb 41f 50f
7:50 8.5ft 8s 6s 22 25 mph 1004.2mb 41f 47f
6:50 9ft 8s 6s 29 34 mph 1004.1mb 41f 49f
5:50 9.5ft 8s 6s 27 31 mph 1004.4mb 41f 48f
4:50 8ft 7s 5s 29 34 mph 1005.1mb 41f 49f
3:50 7ft 7s 5s 27 34 mph 1005.5mb 41f 48f
2:50 7ft 7s 5s 27 31 mph 1006.5mb 41f 49f
1:50 6ft 6s 5s 25 29 mph 1007.3mb 41f 48f
12:50 6ft 7s 5s 25 27 mph 1008.2mb 41f 47f
11:50 6.5ft 6s 5s 27 31 mph 1009.1mb 41f 48f
10:50 6ft 7s 5s 22 27 mph 1010.1mb 41f 47f
9:50 6ft 7s 5s 22 27 mph 1010.8mb 41f 47f
8:50 6ft 7s 5s 22 27 mph 1011.5mb 41f 47f
7:50 6ft 7s 5s 20 22 mph 1012.4mb 41f 47f
6:50 6ft 7s 5s 20 25 mph 1012.7mb 41f 47f
5:50 7ft 7s 5s 22 27 mph 1012.7mb 41f 47f
4:50 6.5ft 7s 5s 22 27 mph 1012.5mb 41f 47f
3:50 6.5ft 7s 5s 22 25 mph 1012.8mb 41f 47f
2:50 6ft 7s 5s 22 27 mph 1012.7mb 41f 46f
1:50 7ft 7s 5s 22 27 mph 1012.7mb 41f 46f
12:50 8ft 6s 5s 25 29 mph 1012.8mb 41f 47f
Seg 04/14 11:50 7ft 7s 5s 27 31 mph 1012.7mb 41f 48f
10:50 8ft 7s 5s 27 29 mph 1013mb 41f 48f
9:50 7.5ft 7s 5s 29 34 mph 1012.7mb 41f 48f
8:50 8ft 7s 5s 27 31 mph 1013.2mb 41f 48f
7:50 7ft 7s 5s 27 31 mph 1012.8mb 41f 49f
6:50 6ft 6s 5s 27 31 mph 1012.6mb 41f 48f
5:50 6ft 6s 5s 25 27 mph 1013mb 41f 48f
4:50 6.5ft 6s 5s 22 27 mph 1013.3mb 41f 48f
3:50 6ft 6s 5s 22 27 mph 1013.5mb 41f 48f
2:50 6.5ft 6s 5s 22 29 mph 1013.8mb 41f 48f
1:50 6ft 6s 5s 22 27 mph 1014.2mb 41f 48f
12:50 6.5ft 6s 5s 27 31 mph 1014.4mb 41f 49f
11:50 5.5ft 6s 5s 22 27 mph 1014.8mb 41f 48f
10:50 6ft 6s 5s 25 27 mph 1015.3mb 41f 48f
9:50 5ft 6s 5s 22 27 mph 1015.2mb 41f 47f
8:50 5ft 6s 5s 22 25 mph 1015.3mb 41f 47f
7:50 5ft 5s 4s 25 27 mph 1015.2mb 41f 46f
6:50 5ft 5s 5s 25 29 mph 1015.2mb 41f 46f
5:50 5ft 6s 5s 20 22 mph 1015.5mb 41f 46f
4:50 5ft 6s 5s 22 25 mph 1015.5mb 41f 46f
3:50 5.5ft 6s 5s 22 25 mph 1015.8mb 41f 47f
2:50 5.5ft 6s 5s 22 27 mph 1015.7mb 41f 47f
1:50 5ft 5s 5s 20 25 mph 1016.3mb 41f 46f
12:50 4.5ft 6s 4s 22 25 mph 1016.8mb 41f 46f
Dom 04/13 11:50 5ft 6s 5s 22 27 mph 1016.9mb 41f 46f
10:50 5ft 6s 5s 20 25 mph 1017.6mb 41f 45f
9:50 5ft 5s 5s 22 27 mph 1017.7mb 41f 46f
8:50 4.5ft 5s 4s 20 22 mph 1018.8mb 41f 46f
7:50 4.5ft 5s 4s 20 25 mph 1018.6mb 41f 46f
6:50 4ft 7s 4s 20 22 mph 1019.5mb 41f 45f
5:50 3.5ft 9s 4s 16 20 mph 1020.5mb 41f 45f
4:50 3.5ft 8s 5s 20 22 mph 1020.8mb 41f 44f
3:50 3.5ft 8s 5s 13 16 mph 1022.4mb 41f 43f
2:50 3.5ft 8s 5s 11 13 mph 1023.6mb 41f 43f
1:50 3.5ft 8s 5s 16 20 mph 1023.8mb 41f 42f
12:50 3.5ft 9s 5s 9
mph
1024.7mb 41f 42f
11:50 3.5ft 8s 5s 2 4 mph 1025.8mb 41f 43f
10:50 3.5ft 9s 5s 4
mph
1025.7mb 41f 42f
9:50 3.5ft 10s 5s 9 11 mph 1025.4mb 41f 42f